sensor_id;sensor_type;location;lat;lon;timestamp;P1;durP1;ratioP1;P2;durP2;ratioP2
39846;SDS011;25517;52.422;10.782;2023-07-31T00:00:00;4.97;;;3.22;;
39846;SDS011;25517;52.422;10.782;2023-07-31T00:02:25;4.95;;;3.20;;
39846;SDS011;25517;52.422;10.782;2023-07-31T00:04:51;5.35;;;2.78;;
39846;SDS011;25517;52.422;10.782;2023-07-31T00:07:16;5.72;;;2.75;;
39846;SDS011;25517;52.422;10.782;2023-07-31T00:09:43;3.97;;;2.45;;
39846;SDS011;25517;52.422;10.782;2023-07-31T00:12:08;6.60;;;3.10;;
39846;SDS011;25517;52.422;10.782;2023-07-31T00:14:34;6.70;;;2.72;;
39846;SDS011;25517;52.422;10.782;2023-07-31T00:16:59;6.03;;;2.53;;
39846;SDS011;25517;52.422;10.782;2023-07-31T00:19:25;4.43;;;2.92;;
39846;SDS011;25517;52.422;10.782;2023-07-31T00:21:50;7.03;;;2.55;;
39846;SDS011;25517;52.422;10.782;2023-07-31T00:24:16;4.10;;;2.72;;
39846;SDS011;25517;52.422;10.782;2023-07-31T00:26:41;6.32;;;3.20;;
39846;SDS011;25517;52.422;10.782;2023-07-31T00:29:07;4.55;;;2.65;;
39846;SDS011;25517;52.422;10.782;2023-07-31T00:31:32;7.90;;;3.35;;
39846;SDS011;25517;52.422;10.782;2023-07-31T00:33:58;4.43;;;2.92;;
39846;SDS011;25517;52.422;10.782;2023-07-31T00:36:23;7.32;;;2.90;;
39846;SDS011;25517;52.422;10.782;2023-07-31T00:38:49;6.00;;;3.03;;
39846;SDS011;25517;52.422;10.782;2023-07-31T00:41:14;9.73;;;3.65;;
39846;SDS011;25517;52.422;10.782;2023-07-31T00:43:40;4.82;;;3.17;;
39846;SDS011;25517;52.422;10.782;2023-07-31T00:46:05;7.70;;;3.05;;
39846;SDS011;25517;52.422;10.782;2023-07-31T00:48:31;4.38;;;2.88;;
39846;SDS011;25517;52.422;10.782;2023-07-31T00:50:58;5.28;;;2.67;;
39846;SDS011;25517;52.422;10.782;2023-07-31T00:53:25;7.68;;;3.20;;
39846;SDS011;25517;52.422;10.782;2023-07-31T00:55:52;8.50;;;3.45;;
39846;SDS011;25517;52.422;10.782;2023-07-31T00:58:18;7.63;;;3.30;;
39846;SDS011;25517;52.422;10.782;2023-07-31T01:00:43;7.15;;;3.05;;
39846;SDS011;25517;52.422;10.782;2023-07-31T01:03:09;5.97;;;3.45;;
39846;SDS011;25517;52.422;10.782;2023-07-31T01:08:29;4.93;;;2.88;;
39846;SDS011;25517;52.422;10.782;2023-07-31T01:11:10;6.05;;;2.75;;
39846;SDS011;25517;52.422;10.782;2023-07-31T01:13:42;7.10;;;3.65;;
39846;SDS011;25517;52.422;10.782;2023-07-31T01:16:09;7.43;;;3.10;;
39846;SDS011;25517;52.422;10.782;2023-07-31T01:18:34;7.72;;;3.33;;
39846;SDS011;25517;52.422;10.782;2023-07-31T01:21:05;5.18;;;2.80;;
39846;SDS011;25517;52.422;10.782;2023-07-31T01:23:51;6.53;;;2.95;;
39846;SDS011;25517;52.422;10.782;2023-07-31T01:26:26;5.53;;;3.05;;
39846;SDS011;25517;52.422;10.782;2023-07-31T01:29:00;8.75;;;4.05;;
39846;SDS011;25517;52.422;10.782;2023-07-31T01:31:27;9.07;;;3.67;;
39846;SDS011;25517;52.422;10.782;2023-07-31T01:33:56;6.93;;;3.92;;
39846;SDS011;25517;52.422;10.782;2023-07-31T01:36:24;5.63;;;2.67;;
39846;SDS011;25517;52.422;10.782;2023-07-31T01:38:50;7.68;;;3.67;;
39846;SDS011;25517;52.422;10.782;2023-07-31T01:41:16;8.00;;;3.10;;
39846;SDS011;25517;52.422;10.782;2023-07-31T01:43:43;7.85;;;3.15;;
39846;SDS011;25517;52.422;10.782;2023-07-31T01:46:09;6.45;;;3.85;;
39846;SDS011;25517;52.422;10.782;2023-07-31T01:48:34;6.40;;;3.97;;
39846;SDS011;25517;52.422;10.782;2023-07-31T01:51:01;7.28;;;3.50;;
39846;SDS011;25517;52.422;10.782;2023-07-31T01:53:28;5.80;;;3.80;;
39846;SDS011;25517;52.422;10.782;2023-07-31T01:55:55;7.93;;;3.70;;
39846;SDS011;25517;52.422;10.782;2023-07-31T01:58:20;5.95;;;3.10;;
39846;SDS011;25517;52.422;10.782;2023-07-31T02:00:46;8.25;;;3.70;;
39846;SDS011;25517;52.422;10.782;2023-07-31T02:03:11;10.73;;;3.85;;
39846;SDS011;25517;52.422;10.782;2023-07-31T02:05:43;11.13;;;3.60;;
39846;SDS011;25517;52.422;10.782;2023-07-31T02:08:09;11.45;;;3.78;;
39846;SDS011;25517;52.422;10.782;2023-07-31T02:10:35;6.53;;;3.97;;
39846;SDS011;25517;52.422;10.782;2023-07-31T02:13:00;5.13;;;3.45;;
39846;SDS011;25517;52.422;10.782;2023-07-31T02:15:26;9.73;;;3.65;;
39846;SDS011;25517;52.422;10.782;2023-07-31T02:17:51;9.18;;;3.75;;
39846;SDS011;25517;52.422;10.782;2023-07-31T02:20:17;8.18;;;3.65;;
39846;SDS011;25517;52.422;10.782;2023-07-31T02:22:42;10.48;;;4.15;;
39846;SDS011;25517;52.422;10.782;2023-07-31T02:25:08;10.63;;;3.72;;
39846;SDS011;25517;52.422;10.782;2023-07-31T02:27:33;9.48;;;4.05;;
39846;SDS011;25517;52.422;10.782;2023-07-31T02:29:59;8.57;;;4.88;;
39846;SDS011;25517;52.422;10.782;2023-07-31T02:32:24;11.55;;;4.85;;
39846;SDS011;25517;52.422;10.782;2023-07-31T02:34:50;6.80;;;3.60;;
39846;SDS011;25517;52.422;10.782;2023-07-31T02:37:15;10.30;;;3.95;;
39846;SDS011;25517;52.422;10.782;2023-07-31T02:39:40;7.85;;;4.15;;
39846;SDS011;25517;52.422;10.782;2023-07-31T02:42:06;7.75;;;3.53;;
39846;SDS011;25517;52.422;10.782;2023-07-31T02:44:31;7.45;;;3.22;;
39846;SDS011;25517;52.422;10.782;2023-07-31T02:46:57;8.40;;;4.22;;
39846;SDS011;25517;52.422;10.782;2023-07-31T02:49:22;9.88;;;3.92;;
39846;SDS011;25517;52.422;10.782;2023-07-31T02:51:48;3.97;;;2.67;;
39846;SDS011;25517;52.422;10.782;2023-07-31T02:54:13;6.72;;;4.05;;
39846;SDS011;25517;52.422;10.782;2023-07-31T02:56:39;7.13;;;3.20;;
39846;SDS011;25517;52.422;10.782;2023-07-31T02:59:04;5.90;;;3.05;;
39846;SDS011;25517;52.422;10.782;2023-07-31T03:01:30;6.10;;;2.80;;
39846;SDS011;25517;52.422;10.782;2023-07-31T03:03:56;3.90;;;3.05;;
39846;SDS011;25517;52.422;10.782;2023-07-31T03:06:22;5.78;;;2.90;;
39846;SDS011;25517;52.422;10.782;2023-07-31T03:08:47;7.28;;;2.90;;
39846;SDS011;25517;52.422;10.782;2023-07-31T03:11:13;7.28;;;2.83;;
39846;SDS011;25517;52.422;10.782;2023-07-31T03:13:38;5.70;;;2.53;;
39846;SDS011;25517;52.422;10.782;2023-07-31T03:16:04;5.93;;;3.08;;
39846;SDS011;25517;52.422;10.782;2023-07-31T03:18:29;3.30;;;2.47;;
39846;SDS011;25517;52.422;10.782;2023-07-31T03:20:55;5.82;;;3.20;;
39846;SDS011;25517;52.422;10.782;2023-07-31T03:23:20;6.60;;;2.55;;
39846;SDS011;25517;52.422;10.782;2023-07-31T03:25:58;6.00;;;3.08;;
39846;SDS011;25517;52.422;10.782;2023-07-31T03:28:25;4.40;;;2.83;;
39846;SDS011;25517;52.422;10.782;2023-07-31T03:30:51;4.38;;;2.50;;
39846;SDS011;25517;52.422;10.782;2023-07-31T03:33:17;4.53;;;3.00;;
39846;SDS011;25517;52.422;10.782;2023-07-31T03:35:43;4.07;;;2.45;;
39846;SDS011;25517;52.422;10.782;2023-07-31T03:38:09;6.82;;;2.67;;
39846;SDS011;25517;52.422;10.782;2023-07-31T03:40:34;5.40;;;2.67;;
39846;SDS011;25517;52.422;10.782;2023-07-31T03:42:59;5.55;;;2.53;;
39846;SDS011;25517;52.422;10.782;2023-07-31T03:45:25;7.25;;;3.08;;
39846;SDS011;25517;52.422;10.782;2023-07-31T03:47:51;6.85;;;2.60;;
39846;SDS011;25517;52.422;10.782;2023-07-31T03:50:16;6.38;;;3.10;;
39846;SDS011;25517;52.422;10.782;2023-07-31T03:52:42;4.53;;;2.90;;
39846;SDS011;25517;52.422;10.782;2023-07-31T03:55:07;5.10;;;2.75;;
39846;SDS011;25517;52.422;10.782;2023-07-31T03:57:33;4.13;;;2.45;;
39846;SDS011;25517;52.422;10.782;2023-07-31T03:59:59;6.13;;;3.00;;
39846;SDS011;25517;52.422;10.782;2023-07-31T04:02:24;3.60;;;2.92;;
39846;SDS011;25517;52.422;10.782;2023-07-31T04:04:50;5.38;;;3.17;;
39846;SDS011;25517;52.422;10.782;2023-07-31T04:07:15;6.75;;;2.70;;
39846;SDS011;25517;52.422;10.782;2023-07-31T04:09:41;3.88;;;2.78;;
39846;SDS011;25517;52.422;10.782;2023-07-31T04:12:06;6.47;;;3.00;;
39846;SDS011;25517;52.422;10.782;2023-07-31T04:14:32;5.78;;;3.03;;
39846;SDS011;25517;52.422;10.782;2023-07-31T04:16:58;4.93;;;3.20;;
39846;SDS011;25517;52.422;10.782;2023-07-31T04:19:23;5.28;;;2.72;;
39846;SDS011;25517;52.422;10.782;2023-07-31T04:21:49;7.60;;;3.42;;
39846;SDS011;25517;52.422;10.782;2023-07-31T04:24:14;4.28;;;3.17;;
39846;SDS011;25517;52.422;10.782;2023-07-31T04:26:40;3.10;;;2.70;;
39846;SDS011;25517;52.422;10.782;2023-07-31T04:29:06;4.85;;;2.80;;
39846;SDS011;25517;52.422;10.782;2023-07-31T04:31:32;4.88;;;3.25;;
39846;SDS011;25517;52.422;10.782;2023-07-31T04:33:58;5.82;;;3.25;;
39846;SDS011;25517;52.422;10.782;2023-07-31T04:36:23;9.20;;;3.22;;
39846;SDS011;25517;52.422;10.782;2023-07-31T04:38:49;8.73;;;3.08;;
39846;SDS011;25517;52.422;10.782;2023-07-31T04:41:14;7.70;;;2.95;;
39846;SDS011;25517;52.422;10.782;2023-07-31T04:43:40;7.43;;;2.58;;
39846;SDS011;25517;52.422;10.782;2023-07-31T04:46:05;6.35;;;2.83;;
39846;SDS011;25517;52.422;10.782;2023-07-31T04:48:31;5.50;;;3.03;;
39846;SDS011;25517;52.422;10.782;2023-07-31T04:50:56;5.75;;;2.33;;
39846;SDS011;25517;52.422;10.782;2023-07-31T04:53:22;5.85;;;3.30;;
39846;SDS011;25517;52.422;10.782;2023-07-31T04:55:48;4.95;;;2.50;;
39846;SDS011;25517;52.422;10.782;2023-07-31T04:58:14;3.72;;;2.85;;
39846;SDS011;25517;52.422;10.782;2023-07-31T05:00:39;4.20;;;2.45;;
39846;SDS011;25517;52.422;10.782;2023-07-31T05:03:05;6.18;;;3.05;;
39846;SDS011;25517;52.422;10.782;2023-07-31T05:05:31;4.03;;;3.03;;
39846;SDS011;25517;52.422;10.782;2023-07-31T05:07:56;3.70;;;2.22;;
39846;SDS011;25517;52.422;10.782;2023-07-31T05:10:22;4.88;;;2.60;;
39846;SDS011;25517;52.422;10.782;2023-07-31T05:12:47;5.38;;;2.33;;
39846;SDS011;25517;52.422;10.782;2023-07-31T05:15:13;3.25;;;2.05;;
39846;SDS011;25517;52.422;10.782;2023-07-31T05:17:38;4.72;;;2.30;;
39846;SDS011;25517;52.422;10.782;2023-07-31T05:20:04;3.03;;;2.05;;
39846;SDS011;25517;52.422;10.782;2023-07-31T05:22:50;4.53;;;2.30;;
39846;SDS011;25517;52.422;10.782;2023-07-31T05:25:16;9.88;;;5.25;;
39846;SDS011;25517;52.422;10.782;2023-07-31T05:27:41;7.60;;;4.38;;
39846;SDS011;25517;52.422;10.782;2023-07-31T05:30:07;3.25;;;2.08;;
39846;SDS011;25517;52.422;10.782;2023-07-31T05:32:33;3.75;;;1.98;;
39846;SDS011;25517;52.422;10.782;2023-07-31T05:34:58;4.53;;;1.85;;
39846;SDS011;25517;52.422;10.782;2023-07-31T05:37:24;3.85;;;1.90;;
39846;SDS011;25517;52.422;10.782;2023-07-31T05:39:49;2.88;;;1.80;;
39846;SDS011;25517;52.422;10.782;2023-07-31T05:42:16;6.32;;;1.77;;
39846;SDS011;25517;52.422;10.782;2023-07-31T05:44:41;2.13;;;1.80;;
39846;SDS011;25517;52.422;10.782;2023-07-31T05:47:07;2.88;;;1.88;;
39846;SDS011;25517;52.422;10.782;2023-07-31T05:49:32;2.30;;;1.77;;
39846;SDS011;25517;52.422;10.782;2023-07-31T05:51:58;3.80;;;1.98;;
39846;SDS011;25517;52.422;10.782;2023-07-31T05:54:24;9.18;;;2.08;;
39846;SDS011;25517;52.422;10.782;2023-07-31T05:56:49;2.50;;;1.90;;
39846;SDS011;25517;52.422;10.782;2023-07-31T05:59:15;5.55;;;2.35;;
39846;SDS011;25517;52.422;10.782;2023-07-31T06:01:41;2.22;;;1.67;;
39846;SDS011;25517;52.422;10.782;2023-07-31T06:04:07;2.33;;;1.65;;
39846;SDS011;25517;52.422;10.782;2023-07-31T06:06:32;2.50;;;1.77;;
39846;SDS011;25517;52.422;10.782;2023-07-31T06:08:58;5.68;;;1.83;;
39846;SDS011;25517;52.422;10.782;2023-07-31T06:11:24;2.30;;;1.83;;
39846;SDS011;25517;52.422;10.782;2023-07-31T06:13:49;3.05;;;1.95;;
39846;SDS011;25517;52.422;10.782;2023-07-31T06:16:15;2.70;;;1.92;;
39846;SDS011;25517;52.422;10.782;2023-07-31T06:18:42;1.88;;;1.40;;
39846;SDS011;25517;52.422;10.782;2023-07-31T06:21:07;3.30;;;1.80;;
39846;SDS011;25517;52.422;10.782;2023-07-31T06:23:34;2.70;;;1.63;;
39846;SDS011;25517;52.422;10.782;2023-07-31T06:25:59;2.00;;;1.52;;
39846;SDS011;25517;52.422;10.782;2023-07-31T06:28:28;2.63;;;1.92;;
39846;SDS011;25517;52.422;10.782;2023-07-31T06:30:54;2.28;;;1.80;;
39846;SDS011;25517;52.422;10.782;2023-07-31T06:33:20;2.35;;;1.95;;
39846;SDS011;25517;52.422;10.782;2023-07-31T06:35:45;3.08;;;1.92;;
39846;SDS011;25517;52.422;10.782;2023-07-31T06:38:11;4.55;;;2.70;;
39846;SDS011;25517;52.422;10.782;2023-07-31T06:40:36;2.92;;;2.50;;
39846;SDS011;25517;52.422;10.782;2023-07-31T06:43:02;5.03;;;2.97;;
39846;SDS011;25517;52.422;10.782;2023-07-31T06:45:36;5.43;;;3.05;;
39846;SDS011;25517;52.422;10.782;2023-07-31T06:48:03;4.37;;;3.13;;
39846;SDS011;25517;52.422;10.782;2023-07-31T06:50:29;5.50;;;3.45;;
39846;SDS011;25517;52.422;10.782;2023-07-31T06:52:56;5.72;;;3.60;;
39846;SDS011;25517;52.422;10.782;2023-07-31T06:55:22;4.72;;;3.15;;
39846;SDS011;25517;52.422;10.782;2023-07-31T06:57:49;7.85;;;4.78;;
39846;SDS011;25517;52.422;10.782;2023-07-31T07:00:16;8.75;;;3.80;;
39846;SDS011;25517;52.422;10.782;2023-07-31T07:02:42;4.90;;;3.25;;
39846;SDS011;25517;52.422;10.782;2023-07-31T07:05:08;5.95;;;3.78;;
39846;SDS011;25517;52.422;10.782;2023-07-31T07:07:34;4.60;;;3.75;;
39846;SDS011;25517;52.422;10.782;2023-07-31T07:10:00;5.45;;;3.55;;
39846;SDS011;25517;52.422;10.782;2023-07-31T07:12:26;7.97;;;4.57;;
39846;SDS011;25517;52.422;10.782;2023-07-31T07:14:54;9.70;;;4.75;;
39846;SDS011;25517;52.422;10.782;2023-07-31T07:17:19;9.57;;;6.10;;
39846;SDS011;25517;52.422;10.782;2023-07-31T07:19:45;11.23;;;5.20;;
39846;SDS011;25517;52.422;10.782;2023-07-31T07:22:12;10.02;;;6.05;;
39846;SDS011;25517;52.422;10.782;2023-07-31T07:24:38;10.05;;;6.57;;
39846;SDS011;25517;52.422;10.782;2023-07-31T07:27:03;11.43;;;6.65;;
39846;SDS011;25517;52.422;10.782;2023-07-31T07:29:29;13.10;;;6.93;;
39846;SDS011;25517;52.422;10.782;2023-07-31T07:31:55;10.60;;;7.03;;
39846;SDS011;25517;52.422;10.782;2023-07-31T07:34:22;16.73;;;7.15;;
39846;SDS011;25517;52.422;10.782;2023-07-31T07:36:49;17.23;;;7.63;;
39846;SDS011;25517;52.422;10.782;2023-07-31T07:39:14;12.43;;;7.80;;
39846;SDS011;25517;52.422;10.782;2023-07-31T07:41:40;13.82;;;8.25;;
39846;SDS011;25517;52.422;10.782;2023-07-31T07:44:05;15.20;;;8.57;;
39846;SDS011;25517;52.422;10.782;2023-07-31T07:46:32;17.80;;;9.20;;
39846;SDS011;25517;52.422;10.782;2023-07-31T07:48:57;17.77;;;9.55;;
39846;SDS011;25517;52.422;10.782;2023-07-31T07:51:23;19.70;;;9.75;;
39846;SDS011;25517;52.422;10.782;2023-07-31T07:53:48;16.60;;;10.55;;
39846;SDS011;25517;52.422;10.782;2023-07-31T07:56:14;17.88;;;10.25;;
39846;SDS011;25517;52.422;10.782;2023-07-31T07:58:39;20.58;;;11.10;;
39846;SDS011;25517;52.422;10.782;2023-07-31T08:01:05;18.05;;;10.63;;
39846;SDS011;25517;52.422;10.782;2023-07-31T08:03:30;23.98;;;11.77;;
39846;SDS011;25517;52.422;10.782;2023-07-31T08:05:59;19.95;;;11.60;;
39846;SDS011;25517;52.422;10.782;2023-07-31T08:08:25;25.48;;;12.43;;
39846;SDS011;25517;52.422;10.782;2023-07-31T08:10:51;21.02;;;12.10;;
39846;SDS011;25517;52.422;10.782;2023-07-31T08:13:16;26.52;;;12.88;;
39846;SDS011;25517;52.422;10.782;2023-07-31T08:15:42;21.55;;;12.15;;
39846;SDS011;25517;52.422;10.782;2023-07-31T08:18:08;22.25;;;12.63;;
39846;SDS011;25517;52.422;10.782;2023-07-31T08:20:34;25.80;;;12.32;;
39846;SDS011;25517;52.422;10.782;2023-07-31T08:22:59;22.20;;;12.90;;
39846;SDS011;25517;52.422;10.782;2023-07-31T08:25:25;23.23;;;12.25;;
39846;SDS011;25517;52.422;10.782;2023-07-31T08:27:51;21.80;;;12.68;;
39846;SDS011;25517;52.422;10.782;2023-07-31T08:30:17;21.67;;;10.57;;
39846;SDS011;25517;52.422;10.782;2023-07-31T08:32:43;17.10;;;10.50;;
39846;SDS011;25517;52.422;10.782;2023-07-31T08:35:09;18.75;;;11.00;;
39846;SDS011;25517;52.422;10.782;2023-07-31T08:37:34;21.70;;;11.60;;
39846;SDS011;25517;52.422;10.782;2023-07-31T08:40:00;17.60;;;9.18;;
39846;SDS011;25517;52.422;10.782;2023-07-31T08:42:26;14.68;;;8.18;;
39846;SDS011;25517;52.422;10.782;2023-07-31T08:44:52;13.88;;;8.82;;
39846;SDS011;25517;52.422;10.782;2023-07-31T08:47:19;15.63;;;8.90;;
39846;SDS011;25517;52.422;10.782;2023-07-31T08:49:46;13.55;;;7.88;;
39846;SDS011;25517;52.422;10.782;2023-07-31T08:52:13;13.98;;;8.13;;
39846;SDS011;25517;52.422;10.782;2023-07-31T08:54:39;14.18;;;6.95;;
39846;SDS011;25517;52.422;10.782;2023-07-31T08:57:05;14.27;;;7.70;;
39846;SDS011;25517;52.422;10.782;2023-07-31T08:59:32;12.52;;;6.75;;
39846;SDS011;25517;52.422;10.782;2023-07-31T09:02:05;16.65;;;7.53;;
39846;SDS011;25517;52.422;10.782;2023-07-31T09:04:32;12.82;;;6.70;;
39846;SDS011;25517;52.422;10.782;2023-07-31T09:07:02;13.32;;;6.35;;
39846;SDS011;25517;52.422;10.782;2023-07-31T09:11:55;13.07;;;6.85;;
39846;SDS011;25517;52.422;10.782;2023-07-31T09:14:22;16.00;;;6.60;;
39846;SDS011;25517;52.422;10.782;2023-07-31T09:16:52;11.95;;;6.63;;
39846;SDS011;25517;52.422;10.782;2023-07-31T09:19:26;15.10;;;6.90;;
39846;SDS011;25517;52.422;10.782;2023-07-31T09:21:52;13.18;;;7.35;;
39846;SDS011;25517;52.422;10.782;2023-07-31T09:24:25;11.98;;;7.22;;
39846;SDS011;25517;52.422;10.782;2023-07-31T09:26:53;13.55;;;7.47;;
39846;SDS011;25517;52.422;10.782;2023-07-31T09:29:23;12.38;;;6.63;;
39846;SDS011;25517;52.422;10.782;2023-07-31T09:31:49;13.52;;;6.85;;
39846;SDS011;25517;52.422;10.782;2023-07-31T09:34:16;11.77;;;7.45;;
39846;SDS011;25517;52.422;10.782;2023-07-31T09:39:18;12.43;;;6.90;;
39846;SDS011;25517;52.422;10.782;2023-07-31T09:41:47;14.20;;;7.05;;
39846;SDS011;25517;52.422;10.782;2023-07-31T09:44:18;14.98;;;7.18;;
39846;SDS011;25517;52.422;10.782;2023-07-31T09:46:43;16.75;;;8.38;;
39846;SDS011;25517;52.422;10.782;2023-07-31T09:49:09;16.48;;;7.65;;
39846;SDS011;25517;52.422;10.782;2023-07-31T09:51:40;13.85;;;7.30;;
39846;SDS011;25517;52.422;10.782;2023-07-31T09:56:42;16.13;;;7.15;;
39846;SDS011;25517;52.422;10.782;2023-07-31T09:59:13;11.43;;;6.57;;
39846;SDS011;25517;52.422;10.782;2023-07-31T10:01:44;12.15;;;6.72;;
39846;SDS011;25517;52.422;10.782;2023-07-31T10:04:11;18.35;;;7.80;;
39846;SDS011;25517;52.422;10.782;2023-07-31T10:06:38;17.05;;;9.60;;
39846;SDS011;25517;52.422;10.782;2023-07-31T10:09:05;12.13;;;6.38;;
39846;SDS011;25517;52.422;10.782;2023-07-31T10:11:41;13.77;;;5.68;;
39846;SDS011;25517;52.422;10.782;2023-07-31T10:14:15;9.48;;;5.55;;
39846;SDS011;25517;52.422;10.782;2023-07-31T10:16:41;8.48;;;5.10;;
39846;SDS011;25517;52.422;10.782;2023-07-31T10:19:08;6.75;;;4.57;;
39846;SDS011;25517;52.422;10.782;2023-07-31T10:21:34;10.32;;;4.93;;
39846;SDS011;25517;52.422;10.782;2023-07-31T10:24:05;7.80;;;4.25;;
39846;SDS011;25517;52.422;10.782;2023-07-31T10:26:32;5.78;;;4.70;;
39846;SDS011;25517;52.422;10.782;2023-07-31T10:28:58;10.52;;;4.38;;
39846;SDS011;25517;52.422;10.782;2023-07-31T10:31:25;7.50;;;4.90;;
39846;SDS011;25517;52.422;10.782;2023-07-31T10:33:52;7.65;;;4.80;;
39846;SDS011;25517;52.422;10.782;2023-07-31T10:36:19;6.07;;;4.35;;
39846;SDS011;25517;52.422;10.782;2023-07-31T10:38:45;7.97;;;4.35;;
39846;SDS011;25517;52.422;10.782;2023-07-31T10:41:13;8.20;;;3.83;;
39846;SDS011;25517;52.422;10.782;2023-07-31T10:43:39;8.05;;;4.70;;
39846;SDS011;25517;52.422;10.782;2023-07-31T10:46:08;9.00;;;4.82;;
39846;SDS011;25517;52.422;10.782;2023-07-31T10:48:36;8.38;;;4.65;;
39846;SDS011;25517;52.422;10.782;2023-07-31T10:51:09;8.65;;;4.32;;
39846;SDS011;25517;52.422;10.782;2023-07-31T10:53:40;6.63;;;4.15;;
39846;SDS011;25517;52.422;10.782;2023-07-31T10:56:10;7.22;;;4.15;;
39846;SDS011;25517;52.422;10.782;2023-07-31T10:58:44;10.82;;;4.38;;
39846;SDS011;25517;52.422;10.782;2023-07-31T11:01:11;10.88;;;4.88;;
39846;SDS011;25517;52.422;10.782;2023-07-31T11:06:17;6.75;;;3.80;;
39846;SDS011;25517;52.422;10.782;2023-07-31T11:08:44;10.90;;;4.10;;
39846;SDS011;25517;52.422;10.782;2023-07-31T11:13:41;11.68;;;4.80;;
39846;SDS011;25517;52.422;10.782;2023-07-31T11:16:14;9.43;;;4.10;;
39846;SDS011;25517;52.422;10.782;2023-07-31T11:18:40;5.38;;;3.80;;
39846;SDS011;25517;52.422;10.782;2023-07-31T11:21:07;5.65;;;3.45;;
39846;SDS011;25517;52.422;10.782;2023-07-31T11:23:36;7.50;;;3.22;;
39846;SDS011;25517;52.422;10.782;2023-07-31T11:26:02;6.43;;;3.13;;
39846;SDS011;25517;52.422;10.782;2023-07-31T11:28:49;8.40;;;3.72;;
39846;SDS011;25517;52.422;10.782;2023-07-31T11:31:15;5.40;;;3.25;;
39846;SDS011;25517;52.422;10.782;2023-07-31T11:33:41;4.22;;;3.45;;
39846;SDS011;25517;52.422;10.782;2023-07-31T11:36:13;5.15;;;3.22;;
39846;SDS011;25517;52.422;10.782;2023-07-31T11:38:40;3.55;;;2.70;;
39846;SDS011;25517;52.422;10.782;2023-07-31T11:41:06;3.95;;;2.90;;
39846;SDS011;25517;52.422;10.782;2023-07-31T11:43:32;4.82;;;3.00;;
39846;SDS011;25517;52.422;10.782;2023-07-31T11:45:58;5.20;;;3.00;;
39846;SDS011;25517;52.422;10.782;2023-07-31T11:48:28;2.80;;;2.50;;
39846;SDS011;25517;52.422;10.782;2023-07-31T11:50:59;5.75;;;2.72;;
39846;SDS011;25517;52.422;10.782;2023-07-31T11:56:07;4.25;;;2.50;;
39846;SDS011;25517;52.422;10.782;2023-07-31T11:58:36;2.93;;;2.30;;
39846;SDS011;25517;52.422;10.782;2023-07-31T12:01:02;3.72;;;2.83;;
39846;SDS011;25517;52.422;10.782;2023-07-31T12:03:29;3.10;;;2.40;;
39846;SDS011;25517;52.422;10.782;2023-07-31T12:05:54;3.72;;;2.65;;
39846;SDS011;25517;52.422;10.782;2023-07-31T12:08:21;4.22;;;2.95;;
39846;SDS011;25517;52.422;10.782;2023-07-31T12:10:49;5.28;;;2.33;;
39846;SDS011;25517;52.422;10.782;2023-07-31T12:13:25;4.68;;;2.67;;
39846;SDS011;25517;52.422;10.782;2023-07-31T12:15:58;4.50;;;2.65;;
39846;SDS011;25517;52.422;10.782;2023-07-31T12:18:26;4.57;;;2.72;;
39846;SDS011;25517;52.422;10.782;2023-07-31T12:20:56;5.20;;;2.65;;
39846;SDS011;25517;52.422;10.782;2023-07-31T12:23:29;5.03;;;2.65;;
39846;SDS011;25517;52.422;10.782;2023-07-31T12:26:00;5.30;;;2.67;;
39846;SDS011;25517;52.422;10.782;2023-07-31T12:31:15;6.80;;;2.92;;
39846;SDS011;25517;52.422;10.782;2023-07-31T12:33:42;5.18;;;3.08;;
39846;SDS011;25517;52.422;10.782;2023-07-31T12:36:09;5.15;;;2.53;;
39846;SDS011;25517;52.422;10.782;2023-07-31T12:38:36;5.78;;;3.72;;
39846;SDS011;25517;52.422;10.782;2023-07-31T12:41:02;3.92;;;2.58;;
39846;SDS011;25517;52.422;10.782;2023-07-31T12:43:27;5.40;;;2.90;;
39846;SDS011;25517;52.422;10.782;2023-07-31T12:45:54;6.20;;;3.13;;
39846;SDS011;25517;52.422;10.782;2023-07-31T12:48:21;5.15;;;2.78;;
39846;SDS011;25517;52.422;10.782;2023-07-31T12:50:47;7.18;;;3.17;;
39846;SDS011;25517;52.422;10.782;2023-07-31T12:53:12;4.30;;;3.38;;
39846;SDS011;25517;52.422;10.782;2023-07-31T12:55:38;4.25;;;2.78;;
39846;SDS011;25517;52.422;10.782;2023-07-31T12:58:03;4.85;;;2.53;;
39846;SDS011;25517;52.422;10.782;2023-07-31T13:00:29;5.65;;;3.22;;
39846;SDS011;25517;52.422;10.782;2023-07-31T13:02:54;6.55;;;2.65;;
39846;SDS011;25517;52.422;10.782;2023-07-31T13:05:20;4.95;;;2.90;;
39846;SDS011;25517;52.422;10.782;2023-07-31T13:07:46;8.10;;;2.90;;
39846;SDS011;25517;52.422;10.782;2023-07-31T13:10:12;6.32;;;2.70;;
39846;SDS011;25517;52.422;10.782;2023-07-31T13:12:38;4.10;;;2.80;;
39846;SDS011;25517;52.422;10.782;2023-07-31T13:15:04;4.57;;;2.60;;
39846;SDS011;25517;52.422;10.782;2023-07-31T13:17:30;7.28;;;2.92;;
39846;SDS011;25517;52.422;10.782;2023-07-31T13:19:56;2.67;;;2.10;;
39846;SDS011;25517;52.422;10.782;2023-07-31T13:22:21;8.93;;;3.13;;
39846;SDS011;25517;52.422;10.782;2023-07-31T13:24:47;3.22;;;2.10;;
39846;SDS011;25517;52.422;10.782;2023-07-31T13:27:13;4.85;;;2.10;;
39846;SDS011;25517;52.422;10.782;2023-07-31T13:29:41;3.05;;;2.35;;
39846;SDS011;25517;52.422;10.782;2023-07-31T13:32:07;5.15;;;2.97;;
39846;SDS011;25517;52.422;10.782;2023-07-31T13:34:32;3.50;;;2.15;;
39846;SDS011;25517;52.422;10.782;2023-07-31T13:36:58;4.80;;;2.28;;
39846;SDS011;25517;52.422;10.782;2023-07-31T13:39:23;2.88;;;2.30;;
39846;SDS011;25517;52.422;10.782;2023-07-31T13:41:49;4.40;;;2.20;;
39846;SDS011;25517;52.422;10.782;2023-07-31T13:44:14;3.63;;;2.25;;
39846;SDS011;25517;52.422;10.782;2023-07-31T13:46:40;3.33;;;2.50;;
39846;SDS011;25517;52.422;10.782;2023-07-31T13:49:05;3.60;;;2.50;;
39846;SDS011;25517;52.422;10.782;2023-07-31T13:51:31;4.85;;;2.25;;
39846;SDS011;25517;52.422;10.782;2023-07-31T13:53:56;4.40;;;2.33;;
39846;SDS011;25517;52.422;10.782;2023-07-31T13:56:22;5.75;;;2.38;;
39846;SDS011;25517;52.422;10.782;2023-07-31T13:58:47;2.92;;;2.10;;
39846;SDS011;25517;52.422;10.782;2023-07-31T14:01:13;2.03;;;1.83;;
39846;SDS011;25517;52.422;10.782;2023-07-31T14:03:38;3.42;;;2.40;;
39846;SDS011;25517;52.422;10.782;2023-07-31T14:06:04;3.10;;;2.03;;
39846;SDS011;25517;52.422;10.782;2023-07-31T14:08:29;2.60;;;1.85;;
39846;SDS011;25517;52.422;10.782;2023-07-31T14:10:55;3.63;;;1.80;;
39846;SDS011;25517;52.422;10.782;2023-07-31T14:13:20;4.38;;;2.08;;
39846;SDS011;25517;52.422;10.782;2023-07-31T14:15:46;3.22;;;2.45;;
39846;SDS011;25517;52.422;10.782;2023-07-31T14:18:12;1.83;;;1.33;;
39846;SDS011;25517;52.422;10.782;2023-07-31T14:20:37;1.70;;;1.33;;
39846;SDS011;25517;52.422;10.782;2023-07-31T14:23:03;1.67;;;1.50;;
39846;SDS011;25517;52.422;10.782;2023-07-31T14:25:28;2.65;;;1.52;;
39846;SDS011;25517;52.422;10.782;2023-07-31T14:27:54;2.38;;;1.65;;
39846;SDS011;25517;52.422;10.782;2023-07-31T14:30:19;3.47;;;1.45;;
39846;SDS011;25517;52.422;10.782;2023-07-31T14:32:45;1.83;;;1.10;;
39846;SDS011;25517;52.422;10.782;2023-07-31T14:35:11;1.45;;;0.90;;
39846;SDS011;25517;52.422;10.782;2023-07-31T14:37:38;2.45;;;1.08;;
39846;SDS011;25517;52.422;10.782;2023-07-31T14:40:05;0.85;;;0.80;;
39846;SDS011;25517;52.422;10.782;2023-07-31T14:42:32;0.75;;;0.75;;
39846;SDS011;25517;52.422;10.782;2023-07-31T14:44:57;1.30;;;1.10;;
39846;SDS011;25517;52.422;10.782;2023-07-31T14:47:23;1.08;;;0.90;;